Time;durP1;ratioP1;P1;durP2;ratioP2;P2;SDS_P1;SDS_P2;PMS_P1;PMS_P2;Temp;Humidity;BMP_temperature;BMP_pressure;BME280_temperature;BME280_humidity;BME280_pressure;Samples;Min_cycle;Max_cycle;Signal;HPM_P1;HPM_P2
2022/03/16 00:02:02;;;;;;;27.70;12.52;;;;;;;4.02;62.20;95657.47;4972319;28;20206;-80
2022/03/16 00:04:31;;;;;;;30.48;12.48;;;;;;;4.12;60.80;95654.84;4961084;28;20218;-80
2022/03/16 00:06:57;;;;;;;26.88;12.68;;;;;;;3.78;62.81;95661.63;4970950;28;20230;-79
2022/03/16 00:09:24;;;;;;;34.63;17.08;;;;;;;3.75;62.88;95656.78;4960754;28;20203;-79
2022/03/16 00:11:51;;;;;;;38.40;17.75;;;;;;;3.83;61.87;95664.31;4963505;28;20227;-78
2022/03/16 00:14:18;;;;;;;34.67;14.35;;;;;;;3.86;62.72;95661.94;4966204;28;20261;-78
2022/03/16 00:16:45;;;;;;;29.00;11.27;;;;;;;3.88;61.98;95656.31;4953299;28;20210;-78
2022/03/16 00:19:12;;;;;;;28.08;12.63;;;;;;;3.86;62.92;95658.47;4964772;28;20222;-79
2022/03/16 00:21:40;;;;;;;27.15;12.27;;;;;;;4.00;62.83;95667.66;4967604;28;20531;-79
2022/03/16 00:24:07;;;;;;;27.50;11.93;;;;;;;4.04;62.33;95658.03;4959476;28;20199;-79
2022/03/16 00:26:34;;;;;;;36.75;18.75;;;;;;;3.96;62.93;95655.03;4971616;28;20281;-79
2022/03/16 00:29:01;;;;;;;29.52;14.82;;;;;;;3.96;62.83;95647.81;4958872;28;20266;-79
2022/03/16 00:31:28;;;;;;;29.10;12.40;;;;;;;3.99;61.90;95630.38;4974104;28;20208;-79
2022/03/16 00:33:55;;;;;;;26.08;11.20;;;;;;;4.14;61.20;95638.50;4979016;28;20234;-79
2022/03/16 00:36:22;;;;;;;31.30;11.95;;;;;;;4.21;60.15;95639.88;4959102;28;20215;-79
2022/03/16 00:38:50;;;;;;;25.25;11.40;;;;;;;4.23;60.17;95629.69;4958461;28;20714;-79
2022/03/16 00:41:19;;;;;;;32.20;12.15;;;;;;;4.33;58.04;95614.69;4964261;28;20204;-80
2022/03/16 00:43:46;;;;;;;28.00;10.43;;;;;;;4.33;56.75;95602.09;4956639;28;20227;-78
2022/03/16 00:46:13;;;;;;;28.17;10.80;;;;;;;4.03;57.78;95600.13;4960278;28;20205;-78
2022/03/16 00:48:40;;;;;;;21.27;10.82;;;;;;;4.06;58.91;95599.59;4958691;28;20370;-79
2022/03/16 00:51:08;;;;;;;25.60;11.40;;;;;;;4.00;59.57;95595.28;4974142;28;20619;-79
2022/03/16 00:53:35;;;;;;;20.95;10.90;;;;;;;4.01;60.44;95591.53;4956130;28;20246;-79
2022/03/16 00:56:04;;;;;;;27.98;11.80;;;;;;;4.01;60.54;95585.34;4960901;28;20298;-79
2022/03/16 00:58:31;;;;;;;29.95;12.65;;;;;;;3.94;61.28;95580.25;4971038;28;20218;-78
2022/03/16 01:00:59;;;;;;;29.60;13.30;;;;;;;3.65;63.42;95581.72;4971498;28;20546;-79
2022/03/16 01:03:26;;;;;;;41.55;19.38;;;;;;;3.71;63.87;95588.69;4955270;28;20211;-79
2022/03/16 01:05:53;;;;;;;46.25;21.77;;;;;;;3.82;63.17;95582.34;4952774;28;20223;-79
2022/03/16 01:08:20;;;;;;;38.83;16.13;;;;;;;3.79;63.61;95585.53;4965115;28;20203;-79
2022/03/16 01:10:47;;;;;;;28.83;12.95;;;;;;;3.88;63.31;95578.59;4968983;28;20219;-79
2022/03/16 01:13:15;;;;;;;40.22;19.35;;;;;;;3.91;63.27;95560.13;4956181;28;20718;-79
2022/03/16 01:15:42;;;;;;;27.95;13.68;;;;;;;3.78;63.04;95565.16;4962664;28;20978;-79
2022/03/16 01:18:10;;;;;;;26.35;11.90;;;;;;;3.94;61.74;95558.81;4967768;28;20230;-79
2022/03/16 01:20:37;;;;;;;30.80;12.85;;;;;;;3.88;62.72;95554.47;4962186;28;20218;-79
2022/03/16 01:23:04;;;;;;;28.33;10.55;;;;;;;3.92;62.80;95552.91;4968395;28;20203;-79
2022/03/16 01:25:31;;;;;;;26.63;12.00;;;;;;;3.99;61.65;95545.41;4963764;28;20229;-80
2022/03/16 01:27:58;;;;;;;27.45;11.10;;;;;;;3.99;61.12;95528.50;4960892;28;20241;-80
2022/03/16 01:30:26;;;;;;;21.60;10.15;;;;;;;3.95;60.90;95532.81;4976452;28;20225;-80
2022/03/16 01:32:53;;;;;;;51.08;21.10;;;;;;;3.45;61.70;95518.94;4988632;28;20226;-78
2022/03/16 01:35:21;;;;;;;165.63;65.75;;;;;;;3.26;63.32;95530.38;4982223;28;20206;-79
2022/03/16 01:37:48;;;;;;;28.20;12.77;;;;;;;3.41;62.03;95527.78;4962068;28;20209;-79
2022/03/16 01:40:15;;;;;;;28.75;12.68;;;;;;;3.58;62.51;95534.53;4971882;28;20867;-79
2022/03/16 01:42:42;;;;;;;19.25;8.75;;;;;;;3.62;61.30;95536.69;4989565;28;20240;-78
2022/03/16 01:45:10;;;;;;;20.55;10.00;;;;;;;3.66;61.92;95541.28;4982265;28;20206;-79
2022/03/16 01:47:39;;;;;;;23.88;10.00;;;;;;;3.73;61.46;95531.13;4963216;28;20202;-80
2022/03/16 01:50:08;;;;;;;27.33;10.45;;;;;;;3.68;61.77;95527.63;4968357;28;20816;-79
2022/03/16 01:52:35;;;;;;;22.45;10.63;;;;;;;3.77;62.42;95521.50;4978922;28;20313;-79
2022/03/16 01:55:05;;;;;;;22.45;10.85;;;;;;;3.85;61.01;95512.94;4962134;28;20242;-79
2022/03/16 01:57:34;;;;;;;28.05;11.70;;;;;;;3.81;61.63;95511.06;4967607;28;20203;-79
2022/03/16 02:00:02;;;;;;;27.83;12.05;;;;;;;3.82;60.73;95516.16;4970886;28;20265;-79
2022/03/16 02:02:29;;;;;;;27.80;12.02;;;;;;;4.00;58.96;95509.50;4976367;28;20256;-79
2022/03/16 02:04:57;;;;;;;33.60;13.10;;;;;;;4.12;58.89;95496.66;4961598;28;20261;-78
2022/03/16 02:07:24;;;;;;;31.30;13.10;;;;;;;4.09;59.58;95505.25;4965737;28;20230;-78
2022/03/16 02:09:53;;;;;;;24.33;10.90;;;;;;;4.01;59.77;95500.38;4971160;28;20311;-79
2022/03/16 02:12:20;;;;;;;24.27;11.85;;;;;;;3.93;60.48;95499.03;4978634;28;20593;-79
2022/03/16 02:14:47;;;;;;;26.02;11.52;;;;;;;4.09;59.67;95501.75;4958414;28;20203;-79
2022/03/16 02:17:14;;;;;;;24.45;11.18;;;;;;;4.04;60.02;95494.50;4965410;28;20213;-79
2022/03/16 02:19:40;;;;;;;27.15;11.95;;;;;;;4.08;60.38;95494.78;4962010;28;20207;-79
2022/03/16 02:22:13;;;;;;;29.95;13.30;;;;;;;3.95;60.79;95479.22;4985342;28;20213;-80
2022/03/16 02:24:42;;;;;;;26.88;11.35;;;;;;;4.08;60.83;95490.22;4963752;28;20597;-79
2022/03/16 02:27:09;;;;;;;26.95;11.20;;;;;;;4.05;59.75;95496.09;4963420;28;20246;-79
2022/03/16 02:29:36;;;;;;;31.48;12.50;;;;;;;3.99;60.51;95478.38;4968851;28;20202;-80
2022/03/16 02:32:03;;;;;;;27.17;11.73;;;;;;;3.91;61.10;95478.94;4987948;28;20661;-79
2022/03/16 02:34:30;;;;;;;36.45;12.90;;;;;;;3.99;61.48;95481.06;4970864;28;20231;-80
2022/03/16 02:36:57;;;;;;;24.45;10.57;;;;;;;4.01;62.04;95478.94;4967022;28;20202;-79
2022/03/16 02:39:24;;;;;;;28.08;10.48;;;;;;;4.08;61.05;95484.88;4969307;28;20199;-80
2022/03/16 02:41:52;;;;;;;29.83;14.25;;;;;;;4.19;60.37;95481.13;4976653;28;20741;-80
2022/03/16 02:44:19;;;;;;;29.08;11.52;;;;;;;4.33;59.72;95468.00;4955090;28;20207;-80
2022/03/16 02:46:46;;;;;;;28.27;12.93;;;;;;;4.40;60.26;95481.13;4968443;28;20234;-80
2022/03/16 02:49:13;;;;;;;23.50;11.25;;;;;;;4.37;60.17;95476.31;4961714;28;20206;-79
2022/03/16 02:51:40;;;;;;;33.28;17.05;;;;;;;4.05;61.78;95480.03;4975147;28;20613;-79
2022/03/16 02:54:07;;;;;;;37.55;16.77;;;;;;;3.83;62.45;95484.78;4974101;28;20241;-80
2022/03/16 02:56:34;;;;;;;36.53;18.80;;;;;;;3.93;62.63;95476.78;4960431;28;20207;-80
2022/03/16 02:59:03;;;;;;;29.38;12.90;;;;;;;4.15;61.44;95466.63;4961191;28;20222;-79
2022/03/16 03:01:30;;;;;;;28.80;11.98;;;;;;;4.27;61.53;95469.84;4980783;28;20575;-80
2022/03/16 03:03:57;;;;;;;25.45;11.65;;;;;;;4.28;61.39;95468.78;4966903;28;20609;-79
2022/03/16 03:06:24;;;;;;;30.33;10.73;;;;;;;4.18;61.50;95458.06;4967540;28;20230;-79
2022/03/16 03:08:51;;;;;;;27.10;11.48;;;;;;;4.06;62.59;95454.84;4962612;28;20210;-80
2022/03/16 03:11:18;;;;;;;25.45;10.52;;;;;;;4.02;61.73;95443.03;4977501;28;20269;-80
2022/03/16 03:13:45;;;;;;;27.13;10.82;;;;;;;4.16;61.34;95438.75;4965908;28;20630;-80
2022/03/16 03:16:13;;;;;;;32.85;10.80;;;;;;;4.12;61.97;95437.66;4967694;28;20202;-80
2022/03/16 03:18:40;;;;;;;24.77;10.45;;;;;;;4.02;62.67;95453.75;4954461;28;20213;-80
2022/03/16 03:21:07;;;;;;;27.45;10.88;;;;;;;4.06;62.24;95444.09;4976235;28;20209;-80
2022/03/16 03:23:34;;;;;;;21.38;10.93;;;;;;;4.25;60.81;95439.81;4984608;28;20206;-80
2022/03/16 03:26:00;;;;;;;18.70;9.68;;;;;;;4.12;61.60;95440.34;4958502;28;20219;-80
2022/03/16 03:28:27;;;;;;;24.13;11.02;;;;;;;4.04;61.74;95440.88;4963330;28;20246;-80
2022/03/16 03:30:54;;;;;;;29.02;10.85;;;;;;;4.20;61.53;95439.84;4975327;28;20214;-80
2022/03/16 03:33:23;;;;;;;21.67;10.40;;;;;;;4.26;61.41;95438.75;4973562;28;20245;-81
2022/03/16 03:35:50;;;;;;;23.10;9.90;;;;;;;4.28;61.49;95436.59;4969099;28;20590;-80
2022/03/16 03:38:17;;;;;;;25.42;11.77;;;;;;;4.24;61.64;95446.25;4963332;28;20214;-80
2022/03/16 03:40:44;;;;;;;29.63;15.43;;;;;;;4.31;62.02;95434.47;4968989;28;20290;-80
2022/03/16 03:43:11;;;;;;;27.50;13.00;;;;;;;4.29;61.75;95438.22;4981074;28;20323;-80
2022/03/16 03:45:38;;;;;;;24.80;11.63;;;;;;;4.35;62.00;95425.63;4960953;28;20273;-80
2022/03/16 03:48:05;;;;;;;25.10;11.07;;;;;;;4.41;61.10;95429.09;4963498;28;20689;-80
2022/03/16 03:50:34;;;;;;;24.67;11.20;;;;;;;4.15;61.80;95431.78;4967807;28;20195;-80
2022/03/16 03:53:00;;;;;;;27.65;10.85;;;;;;;4.18;61.71;95425.88;4961982;28;20309;-79
2022/03/16 03:55:28;;;;;;;28.98;11.73;;;;;;;4.40;61.03;95422.13;4953559;28;20818;-80
2022/03/16 03:57:57;;;;;;;29.05;11.88;;;;;;;4.35;60.98;95435.53;4965232;28;20202;-80
2022/03/16 04:00:24;;;;;;;34.97;16.80;;;;;;;4.10;62.89;95422.94;4957106;28;20211;-79
2022/03/16 04:02:51;;;;;;;31.92;16.88;;;;;;;4.21;61.73;95428.03;4973752;28;20218;-78
2022/03/16 04:05:19;;;;;;;31.63;13.43;;;;;;;4.22;61.25;95429.66;4959178;28;20724;-79
2022/03/16 04:07:48;;;;;;;27.85;12.05;;;;;;;4.04;62.93;95430.16;4960601;28;20211;-79
2022/03/16 04:10:15;;;;;;;29.50;13.55;;;;;;;3.94;62.51;95424.78;4970811;28;20214;-79
2022/03/16 04:12:42;;;;;;;31.58;14.30;;;;;;;4.09;61.82;95427.50;4972325;28;20207;-79
2022/03/16 04:15:10;;;;;;;39.33;20.67;;;;;;;4.08;63.04;95431.25;4959572;28;20580;-79
2022/03/16 04:17:37;;;;;;;30.00;13.68;;;;;;;4.03;61.43;95422.38;4960352;28;20203;-79
2022/03/16 04:20:05;;;;;;;32.70;13.20;;;;;;;4.05;61.38;95431.78;4961110;28;20203;-79
2022/03/16 04:22:31;;;;;;;22.75;12.20;;;;;;;4.22;62.01;95420.81;4974816;28;20221;-80
2022/03/16 04:25:00;;;;;;;26.40;13.05;;;;;;;4.42;61.55;95415.41;4960168;28;20237;-79
2022/03/16 04:27:27;;;;;;;29.42;12.25;;;;;;;4.34;62.80;95420.53;4959362;28;20242;-81
2022/03/16 04:29:53;;;;;;;37.10;15.65;;;;;;;4.31;62.59;95408.47;4969924;28;20626;-81
2022/03/16 04:32:20;;;;;;;35.97;16.58;;;;;;;4.39;63.50;95404.41;4985664;28;20212;-79
2022/03/16 04:34:47;;;;;;;29.38;13.02;;;;;;;4.43;63.05;95405.50;4965229;28;20235;-80
2022/03/16 04:37:14;;;;;;;29.35;13.15;;;;;;;4.45;62.84;95406.03;4965744;28;20677;-80
2022/03/16 04:39:42;;;;;;;26.25;11.77;;;;;;;4.42;63.88;95403.88;4959901;28;20210;-80
2022/03/16 04:42:10;;;;;;;37.17;17.15;;;;;;;4.62;62.73;95387.78;4982781;28;20226;-79
2022/03/16 04:44:37;;;;;;;24.48;12.48;;;;;;;4.56;63.52;95381.59;4964371;28;20262;-80
2022/03/16 04:47:05;;;;;;;22.85;11.23;;;;;;;4.46;63.39;95388.88;4967550;28;20321;-80
2022/03/16 04:49:31;;;;;;;24.85;12.75;;;;;;;4.76;61.44;95378.09;4964086;28;20215;-80
2022/03/16 04:51:58;;;;;;;34.45;15.55;;;;;;;4.47;62.52;95385.91;4980811;28;20201;-80
2022/03/16 04:54:25;;;;;;;45.75;16.73;;;;;;;4.35;63.37;95384.59;4972153;28;20237;-81
2022/03/16 04:56:52;;;;;;;34.25;14.30;;;;;;;4.23;62.92;95374.94;4959400;28;20211;-81
2022/03/16 04:59:20;;;;;;;37.80;14.32;;;;;;;4.19;63.25;95373.88;4963710;28;20214;-78
2022/03/16 05:01:47;;;;;;;42.58;21.08;;;;;;;4.27;63.07;95370.63;4977909;28;20202;-79
2022/03/16 05:04:14;;;;;;;28.67;13.38;;;;;;;4.29;62.46;95373.84;4962260;28;20705;-79
2022/03/16 05:06:41;;;;;;;27.10;12.90;;;;;;;4.49;62.41;95361.50;4965422;28;20202;-80
2022/03/16 05:09:08;;;;;;;47.58;21.95;;;;;;;4.60;62.38;95371.13;4961624;28;20229;-80
2022/03/16 05:11:40;;;;;;;33.05;14.18;;;;;;;4.63;63.61;95360.69;4978001;28;20203;-80
2022/03/16 05:14:07;;;;;;;30.58;14.00;;;;;;;4.72;63.67;95360.91;4960358;28;20555;-80
2022/03/16 05:16:35;;;;;;;31.48;14.40;;;;;;;4.64;63.39;95359.59;4965376;28;20563;-80
2022/03/16 05:19:02;;;;;;;29.63;14.13;;;;;;;4.73;62.97;95367.88;4963235;28;20206;-81
2022/03/16 05:21:29;;;;;;;27.83;11.10;;;;;;;4.57;63.96;95361.75;4976213;28;20654;-80
2022/03/16 05:23:56;;;;;;;24.38;10.82;;;;;;;4.77;62.43;95357.41;4960100;28;20226;-80
2022/03/16 05:26:23;;;;;;;31.25;11.27;;;;;;;4.76;62.64;95356.63;4954709;28;20724;-79
2022/03/16 05:28:52;;;;;;;27.23;12.00;;;;;;;4.65;61.98;95355.00;4958299;28;20234;-80
2022/03/16 05:31:19;;;;;;;34.35;12.27;;;;;;;4.78;61.57;95354.47;4976017;28;20195;-79
2022/03/16 05:33:47;;;;;;;31.88;14.13;;;;;;;4.76;62.16;95345.88;4979621;28;20237;-80
2022/03/16 05:36:17;;;;;;;32.97;14.13;;;;;;;4.74;62.45;95341.84;4958307;28;20225;-80
2022/03/16 05:38:43;;;;;;;41.78;17.08;;;;;;;4.67;63.17;95334.06;4959606;28;20575;-80
2022/03/16 05:41:11;;;;;;;49.13;24.17;;;;;;;4.73;63.80;95324.94;4974697;28;20241;-80
2022/03/16 05:43:41;;;;;;;40.35;17.23;;;;;;;4.83;63.67;95330.28;4976496;28;20202;-80
2022/03/16 05:46:08;;;;;;;42.97;14.75;;;;;;;4.90;61.76;95330.81;4959151;28;20313;-80
2022/03/16 05:48:35;;;;;;;25.45;12.00;;;;;;;4.70;64.03;95322.81;4958311;28;20203;-80
2022/03/16 05:51:04;;;;;;;27.85;13.10;;;;;;;4.72;63.53;95312.59;4972117;28;20207;-80
2022/03/16 05:53:31;;;;;;;39.55;18.08;;;;;;;4.64;63.18;95310.50;4964971;28;20230;-81
2022/03/16 05:55:57;;;;;;;47.95;17.50;;;;;;;4.47;63.20;95310.00;4959580;28;20241;-79
2022/03/16 05:58:24;;;;;;;38.50;14.57;;;;;;;4.51;62.44;95306.47;4957875;28;20218;-78
2022/03/16 06:00:51;;;;;;;38.15;15.02;;;;;;;4.46;62.75;95314.56;4969766;28;20265;-80
2022/03/16 06:03:18;;;;;;;28.05;10.82;;;;;;;4.50;60.74;95315.63;4957449;28;20212;-79
2022/03/16 06:05:46;;;;;;;28.08;11.90;;;;;;;4.60;61.11;95309.44;4959738;28;20230;-79
2022/03/16 06:08:14;;;;;;;29.42;11.90;;;;;;;4.57;60.94;95320.69;4958424;28;20241;-84
2022/03/16 06:10:41;;;;;;;25.75;10.93;;;;;;;4.55;60.53;95310.25;4971118;28;20234;-80
2022/03/16 06:13:08;;;;;;;32.88;13.10;;;;;;;4.47;60.94;95318.06;4971244;28;20206;-80
2022/03/16 06:15:39;;;;;;;22.75;10.30;;;;;;;4.46;61.02;95319.94;4963713;28;20238;-80
2022/03/16 06:18:06;;;;;;;31.02;13.10;;;;;;;4.59;60.45;95326.59;4961701;28;20210;-81
2022/03/16 06:20:35;;;;;;;30.10;12.25;;;;;;;4.97;59.71;95309.00;4980185;28;20196;-81
2022/03/16 06:23:02;;;;;;;29.45;13.07;;;;;;;5.10;61.54;95303.03;4969069;28;20207;-80
2022/03/16 06:25:31;;;;;;;23.77;11.90;;;;;;;5.31;59.16;95303.75;4965299;28;20214;-81
2022/03/16 06:27:57;;;;;;;28.25;12.35;;;;;;;5.30;60.84;95302.94;4961334;28;20237;-79
2022/03/16 06:30:25;;;;;;;28.20;10.65;;;;;;;5.41;60.02;95313.63;4975926;28;20206;-80
2022/03/16 06:32:52;;;;;;;32.50;13.45;;;;;;;5.37;62.54;95310.69;4985173;28;20217;-80
2022/03/16 06:35:19;;;;;;;25.05;12.55;;;;;;;5.41;61.70;95313.63;4963915;28;20235;-80
2022/03/16 06:37:46;;;;;;;34.78;13.63;;;;;;;5.45;60.58;95310.13;4968184;28;20207;-80
2022/03/16 06:40:14;;;;;;;48.97;18.13;;;;;;;5.47;60.63;95302.56;4967801;28;20204;-81
2022/03/16 06:42:53;;;;;;;28.70;13.50;;;;;;;5.32;60.31;95321.47;4980293;28;20230;-79
2022/03/16 06:45:21;;;;;;;38.75;13.38;;;;;;;5.14;60.48;95324.78;4960470;28;20291;-79
2022/03/16 06:47:48;;;;;;;35.45;15.10;;;;;;;5.06;61.43;95317.31;4966851;28;20215;-80
2022/03/16 06:50:16;;;;;;;27.65;12.65;;;;;;;4.85;60.26;95314.72;4967044;28;20205;-80
2022/03/16 06:52:43;;;;;;;39.00;17.95;;;;;;;4.90;59.46;95321.94;4975643;28;20245;-80
2022/03/16 06:55:11;;;;;;;29.58;12.88;;;;;;;4.64;59.98;95327.41;4960270;28;20242;-79
2022/03/16 06:57:38;;;;;;;30.60;13.70;;;;;;;4.64;59.81;95331.97;4965496;28;20211;-81
2022/03/16 07:00:09;;;;;;;41.88;14.48;;;;;;;4.85;59.04;95324.63;4967470;28;20202;-79
2022/03/16 07:02:49;;;;;;;35.65;13.65;;;;;;;5.05;59.23;95321.09;4969038;28;20618;-81
2022/03/16 07:05:16;;;;;;;25.05;12.02;;;;;;;5.24;58.56;95322.84;4968098;28;20663;-81
2022/03/16 07:07:43;;;;;;;40.75;12.63;;;;;;;5.30;58.03;95324.44;4955343;28;20249;-81
2022/03/16 07:10:10;;;;;;;27.88;12.43;;;;;;;5.33;58.86;95320.38;4957917;28;20206;-81
2022/03/16 07:12:37;;;;;;;28.15;12.73;;;;;;;5.43;57.91;95312.28;4963669;28;20210;-81
2022/03/16 07:15:07;;;;;;;34.53;16.42;;;;;;;5.49;57.95;95300.41;4968010;28;20706;-80
2022/03/16 07:17:33;;;;;;;45.17;14.32;;;;;;;5.50;58.00;95301.22;4965862;28;20210;-81
2022/03/16 07:20:00;;;;;;;33.92;13.77;;;;;;;5.52;57.40;95305.22;4960669;28;20666;-81
2022/03/16 07:22:27;;;;;;;35.63;14.73;;;;;;;5.74;56.92;95302.09;4962165;28;20214;-80
2022/03/16 07:24:54;;;;;;;37.72;16.80;;;;;;;5.85;56.93;95302.84;4953927;28;20214;-80
2022/03/16 07:27:21;;;;;;;33.78;14.48;;;;;;;6.05;56.50;95302.69;4954527;28;20238;-80
2022/03/16 07:29:48;;;;;;;31.50;12.27;;;;;;;5.88;56.29;95286.13;4967358;28;20211;-81
2022/03/16 07:32:16;;;;;;;39.00;13.30;;;;;;;6.11;55.92;95290.81;4966833;28;20206;-80
2022/03/16 07:34:44;;;;;;;35.58;14.48;;;;;;;6.22;55.67;95300.41;4962759;28;20246;-81
2022/03/16 07:37:11;;;;;;;35.13;13.43;;;;;;;6.64;55.22;95299.72;4963177;28;20199;-82
2022/03/16 07:39:37;;;;;;;26.80;11.68;;;;;;;6.74;52.87;95288.00;4962058;28;20708;-81
2022/03/16 07:42:05;;;;;;;42.05;11.25;;;;;;;6.77;53.42;95292.84;4963305;28;20569;-81
2022/03/16 07:44:32;;;;;;;30.33;11.43;;;;;;;6.97;52.73;95287.19;4961890;28;20210;-81
2022/03/16 07:46:59;;;;;;;31.42;11.73;;;;;;;7.09;52.45;95284.91;4955504;28;20263;-81
2022/03/16 07:49:27;;;;;;;27.73;10.80;;;;;;;7.40;51.68;95281.78;4963865;28;20227;-81
2022/03/16 07:51:55;;;;;;;25.38;10.32;;;;;;;7.48;50.68;95278.44;4962943;28;20625;-80
2022/03/16 07:54:22;;;;;;;33.50;11.23;;;;;;;7.68;50.51;95272.75;4962909;28;20278;-83
2022/03/16 07:56:49;;;;;;;30.50;12.35;;;;;;;7.66;50.95;95282.22;4961736;28;20262;-82
2022/03/16 07:59:16;;;;;;;34.55;12.10;;;;;;;7.73;50.12;95269.97;4954070;28;20618;-81
2022/03/16 08:01:44;;;;;;;25.50;12.32;;;;;;;7.24;51.00;95285.81;4968994;28;20206;-81
2022/03/16 08:04:11;;;;;;;24.55;11.68;;;;;;;7.51;50.85;95277.88;4964364;28;20234;-81
2022/03/16 08:06:39;;;;;;;27.17;12.25;;;;;;;7.68;50.18;95275.44;4967275;28;20203;-82
2022/03/16 08:09:06;;;;;;;38.50;12.27;;;;;;;7.93;50.18;95262.63;4963185;28;20207;-82
2022/03/16 08:11:33;;;;;;;34.92;12.52;;;;;;;8.15;49.56;95268.22;4959852;28;20210;-82
2022/03/16 08:14:00;;;;;;;39.03;12.40;;;;;;;7.95;49.30;95263.16;4963644;28;20429;-86
2022/03/16 08:16:27;;;;;;;29.42;12.02;;;;;;;7.59;50.29;95265.63;4967017;28;20704;-84
2022/03/16 08:18:54;;;;;;;25.45;12.40;;;;;;;7.94;50.86;95272.34;4971466;28;20210;-82
2022/03/16 08:21:20;;;;;;;29.90;12.30;;;;;;;8.04;50.15;95266.78;4984050;28;20218;-84
2022/03/16 08:23:49;;;;;;;37.92;12.30;;;;;;;7.97;49.93;95266.34;4972318;28;20203;-77
2022/03/16 08:26:16;;;;;;;36.05;12.02;;;;;;;7.83;50.16;95250.13;4961941;28;20236;-79
2022/03/16 08:28:45;;;;;;;38.38;12.50;;;;;;;8.20;48.39;95247.31;4961898;28;20278;-79
2022/03/16 08:31:14;;;;;;;41.92;18.23;;;;;;;8.28;48.63;95245.84;4952953;28;20282;-80
2022/03/16 08:33:41;;;;;;;41.72;15.85;;;;;;;8.47;48.54;95246.59;4963713;28;20269;-77
2022/03/16 08:36:08;;;;;;;45.67;14.23;;;;;;;8.64;47.12;95237.09;4959029;28;20241;-78
2022/03/16 08:38:37;;;;;;;33.13;13.23;;;;;;;8.76;45.83;95234.69;4972653;28;20206;-79
2022/03/16 08:41:06;;;;;;;28.80;11.15;;;;;;;8.52;46.22;95229.50;4972328;28;20211;-80
2022/03/16 08:43:34;;;;;;;27.83;12.30;;;;;;;8.34;45.95;95235.78;4972206;28;20285;-79
2022/03/16 08:46:01;;;;;;;27.52;13.00;;;;;;;7.62;46.59;95230.78;4959057;28;20214;-85
2022/03/16 08:48:29;;;;;;;25.55;10.85;;;;;;;7.53;47.73;95240.63;4959546;28;20199;-81
2022/03/16 08:50:55;;;;;;;35.80;10.77;;;;;;;7.70;47.74;95246.28;4965447;28;20415;-79
2022/03/16 08:53:22;;;;;;;36.00;13.35;;;;;;;7.99;47.47;95247.97;4967793;28;20606;-77
2022/03/16 08:55:49;;;;;;;30.73;10.25;;;;;;;8.20;45.83;95247.31;4965580;28;20242;-79
2022/03/16 08:58:18;;;;;;;26.23;12.10;;;;;;;8.36;46.25;95245.19;4966885;28;20217;-78
2022/03/16 09:00:44;;;;;;;25.85;13.55;;;;;;;8.50;44.23;95237.91;4959132;28;20203;-82
2022/03/16 09:03:11;;;;;;;27.52;12.13;;;;;;;8.34;44.73;95222.28;4958345;28;20231;-80
2022/03/16 09:05:38;;;;;;;29.58;12.35;;;;;;;8.39;44.67;95224.91;4963566;28;20209;-79
2022/03/16 09:08:05;;;;;;;25.25;11.82;;;;;;;8.82;43.30;95230.81;4965539;28;20230;-79
2022/03/16 09:10:32;;;;;;;32.25;12.77;;;;;;;8.84;42.93;95226.72;4961042;28;20207;-81
2022/03/16 09:12:59;;;;;;;31.45;12.55;;;;;;;8.81;43.15;95230.00;4953962;28;20481;-78
2022/03/16 09:15:27;;;;;;;31.50;13.52;;;;;;;8.33;43.90;95226.91;4972032;28;20229;-83
2022/03/16 09:17:55;;;;;;;34.80;13.68;;;;;;;8.06;45.00;95229.53;4970084;28;20210;-85
2022/03/16 09:20:22;;;;;;;29.15;13.02;;;;;;;8.10;45.75;95225.13;4959903;28;20215;-80
2022/03/16 09:22:48;;;;;;;30.15;13.30;;;;;;;8.07;44.75;95228.41;4957220;28;20238;-80
2022/03/16 09:25:15;;;;;;;30.80;11.88;;;;;;;7.88;44.64;95236.56;4951863;28;20234;-79
2022/03/16 09:27:42;;;;;;;30.35;13.57;;;;;;;7.99;44.84;95234.50;4954637;28;20649;-81
2022/03/16 09:30:10;;;;;;;32.15;14.50;;;;;;;8.13;45.36;95232.63;4962778;28;20261;-82
2022/03/16 09:32:39;;;;;;;36.25;15.38;;;;;;;8.79;44.64;95244.91;4965006;28;20217;-77
2022/03/16 09:35:07;;;;;;;32.40;14.13;;;;;;;9.11;44.39;95236.69;4961614;28;20488;-77
2022/03/16 09:37:34;;;;;;;29.67;14.32;;;;;;;9.01;43.18;95242.31;4957915;28;20238;-78
2022/03/16 09:40:02;;;;;;;34.17;14.43;;;;;;;9.38;42.36;95240.44;4961043;28;20706;-79
2022/03/16 09:42:30;;;;;;;34.80;14.07;;;;;;;9.40;42.44;95238.22;4969559;28;20209;-76
2022/03/16 09:45:01;;;;;;;28.83;14.30;;;;;;;10.20;41.41;95223.88;4960559;28;20214;-77
2022/03/16 09:47:30;;;;;;;30.25;14.40;;;;;;;10.30;40.42;95223.59;4965993;28;20238;-79
2022/03/16 09:49:59;;;;;;;28.15;14.40;;;;;;;10.11;40.70;95231.13;4967852;28;20571;-77
2022/03/16 09:52:28;;;;;;;34.70;13.65;;;;;;;9.86;40.57;95230.63;4962342;28;20206;-78
2022/03/16 09:54:55;;;;;;;35.28;13.40;;;;;;;10.24;40.08;95216.72;4962972;28;20211;-78
2022/03/16 09:57:22;;;;;;;29.23;14.15;;;;;;;10.37;40.63;95223.97;4962236;28;20202;-78
2022/03/16 09:59:49;;;;;;;28.48;13.60;;;;;;;9.79;40.81;95221.34;4962174;28;20203;-79
2022/03/16 10:02:17;;;;;;;31.17;13.63;;;;;;;9.67;41.15;95221.91;4955658;28;20278;-78
2022/03/16 10:04:47;;;;;;;40.70;20.98;;;;;;;10.22;39.80;95218.94;4956218;28;20219;-83
2022/03/16 10:07:15;;;;;;;28.58;14.40;;;;;;;9.92;40.20;95223.97;4965654;28;20231;-78
2022/03/16 10:15:17;;;;;;;32.47;15.48;;;;;;;9.72;41.74;95213.66;4961622;28;20713;-78
2022/03/16 10:17:48;;;;;;;36.10;16.05;;;;;;;9.65;42.14;95197.06;4961685;28;20730;-79
2022/03/16 10:20:27;;;;;;;36.75;17.02;;;;;;;9.87;42.34;95204.34;4967586;28;20199;-79
2022/03/16 10:22:58;;;;;;;37.47;17.25;;;;;;;10.23;42.49;95207.00;4967536;28;20230;-78
2022/03/16 10:25:27;;;;;;;39.13;15.80;;;;;;;9.90;42.14;95204.53;4965027;28;20229;-81
2022/03/16 10:28:08;;;;;;;37.10;16.63;;;;;;;10.04;41.30;95199.06;4961151;28;20238;-85
2022/03/16 10:30:35;;;;;;;33.45;15.88;;;;;;;9.89;42.04;95200.25;4962191;28;20805;-85
2022/03/16 10:33:02;;;;;;;35.10;16.60;;;;;;;9.53;42.07;95204.91;4967998;28;20864;-83
2022/03/16 10:35:28;;;;;;;34.50;17.60;;;;;;;9.67;42.90;95197.56;4967602;28;20230;-81
2022/03/16 10:38:08;;;;;;;31.27;16.85;;;;;;;9.69;43.39;95208.88;4960916;28;20214;-80
2022/03/16 10:40:35;;;;;;;46.50;18.75;;;;;;;9.50;43.70;95200.13;4962228;28;20195;-80
2022/03/16 10:48:59;;;;;;;41.45;18.33;;;;;;;9.91;42.83;95216.97;4922969;29;20218;-81
2022/03/16 10:51:26;;;;;;;34.60;18.17;;;;;;;10.06;42.72;95201.47;4923863;29;20319;-80
2022/03/16 10:53:56;;;;;;;52.67;18.92;;;;;;;10.16;42.37;95206.59;4945136;28;20199;-84
2022/03/16 10:56:25;;;;;;;46.72;18.92;;;;;;;10.06;42.20;95196.03;4967489;28;20445;-81
2022/03/16 10:58:54;;;;;;;42.95;19.98;;;;;;;9.91;43.70;95183.69;4961932;28;20210;-80
2022/03/16 11:01:22;;;;;;;50.53;20.00;;;;;;;9.68;43.72;95184.81;4961369;28;20265;-78
2022/03/16 11:03:50;;;;;;;48.83;20.55;;;;;;;9.65;45.28;95180.81;4967998;28;20227;-78
2022/03/16 11:06:21;;;;;;;39.60;20.25;;;;;;;10.08;44.93;95180.28;4967533;28;20203;-83
2022/03/16 11:08:49;;;;;;;55.38;21.50;;;;;;;10.41;42.65;95181.59;4961421;28;20233;-81
2022/03/16 11:14:03;;;;;;;49.58;21.02;;;;;;;10.20;42.95;95180.53;4964440;28;20206;-78
2022/03/16 11:16:31;;;;;;;45.88;21.95;;;;;;;10.56;42.38;95162.19;4967697;28;20278;-80
2022/03/16 11:18:59;;;;;;;45.55;21.35;;;;;;;9.93;42.74;95166.06;4964697;28;20653;-80
2022/03/16 11:21:31;;;;;;;50.33;21.85;;;;;;;9.87;43.41;95156.44;4960227;28;20234;-83
2022/03/16 11:24:17;;;;;;;47.83;21.25;;;;;;;10.04;44.84;95149.53;4972804;28;20241;-83
2022/03/16 11:27:32;;;;;;;38.03;22.77;;;;;;;10.31;42.82;95135.84;4960820;28;20297;-79
2022/03/16 11:30:18;;;;;;;50.13;20.08;;;;;;;9.57;42.67;95147.19;4961673;28;20206;-78
2022/03/16 11:32:47;;;;;;;42.78;17.67;;;;;;;9.36;42.80;95129.88;4974001;28;20226;-81
2022/03/16 11:35:16;;;;;;;41.80;20.10;;;;;;;9.26;43.69;95130.91;4978198;28;20552;-78
2022/03/16 11:37:46;;;;;;;44.00;18.17;;;;;;;9.68;43.09;95130.72;4971842;28;20545;-82
2022/03/16 11:40:15;;;;;;;37.38;19.20;;;;;;;10.22;42.81;95121.47;4972320;28;20298;-80
2022/03/16 11:43:16;;;;;;;40.80;16.50;;;;;;;10.63;41.42;95121.91;4975014;28;20202;-80